createdAt,value
2023-02-15T21:35:04.761Z,83.60
2023-02-15T21:37:36.923Z,86.40
2023-02-15T21:40:14.630Z,84.10
2023-02-15T21:43:01.597Z,89.00
2023-02-15T21:45:48.913Z,83.40
2023-02-15T21:48:17.241Z,84.90
2023-02-15T21:51:04.694Z,88.40
2023-02-15T21:53:42.913Z,83.20
2023-02-15T21:56:22.369Z,78.90
2023-02-15T21:58:50.560Z,74.00
2023-02-15T22:01:27.584Z,72.30
2023-02-15T22:03:59.636Z,69.50
2023-02-15T22:06:27.962Z,70.90
2023-02-15T22:08:56.460Z,71.00
2023-02-15T22:11:25.246Z,70.50
2023-02-15T22:13:54.553Z,74.60
2023-02-15T22:16:24.090Z,64.60
2023-02-15T22:18:53.068Z,73.10
2023-02-15T22:21:21.897Z,75.00
2023-02-15T22:23:53.185Z,77.80
2023-02-15T22:26:25.244Z,79.70
2023-02-15T22:28:54.064Z,78.50
2023-02-15T22:31:23.783Z,84.40
2023-02-15T22:33:52.359Z,78.10
2023-02-15T22:36:33.142Z,76.70
2023-02-15T22:39:01.489Z,82.70
2023-02-15T22:41:32.165Z,80.80
2023-02-15T22:44:01.201Z,70.40
2023-02-15T22:46:29.931Z,72.80
2023-02-15T22:48:58.693Z,75.90
2023-02-15T22:51:28.306Z,87.60
2023-02-15T22:53:56.627Z,83.80
2023-02-15T22:56:36.869Z,80.00
2023-02-15T22:59:11.087Z,77.40
2023-02-15T23:01:39.490Z,82.40
2023-02-15T23:04:08.119Z,79.10
2023-02-15T23:06:36.589Z,78.60
2023-02-15T23:09:05.007Z,73.10
2023-02-15T23:11:34.116Z,71.30
2023-02-15T23:14:05.323Z,72.60
2023-02-15T23:16:35.132Z,74.10
2023-02-15T23:19:03.375Z,74.50
2023-02-15T23:21:33.973Z,72.80
2023-02-15T23:24:26.681Z,77.90
2023-02-15T23:26:55.039Z,77.10
2023-02-15T23:29:27.279Z,74.90
2023-02-15T23:31:56.482Z,77.60
2023-02-15T23:34:29.647Z,81.60
2023-02-15T23:36:58.362Z,83.70
2023-02-15T23:39:47.844Z,78.30
2023-02-15T23:42:22.239Z,93.50
2023-02-15T23:44:51.001Z,87.30
2023-02-15T23:47:47.010Z,87.00
2023-02-15T23:50:21.294Z,77.30
2023-02-15T23:52:54.088Z,76.00
2023-02-15T23:55:24.167Z,78.10
2023-02-15T23:57:54.519Z,80.80
